sensor_id;sensor_type;location;lat;lon;timestamp;temperature;humidity
16287;DHT22;8251;53.568;10.018;2022-09-01T00:01:48;19.70;64.00
16287;DHT22;8251;53.568;10.018;2022-09-01T00:04:17;19.70;64.10
16287;DHT22;8251;53.568;10.018;2022-09-01T00:06:45;19.70;64.30
16287;DHT22;8251;53.568;10.018;2022-09-01T00:09:17;19.70;64.40
16287;DHT22;8251;53.568;10.018;2022-09-01T00:11:48;19.70;64.50
16287;DHT22;8251;53.568;10.018;2022-09-01T00:14:21;19.60;64.60
16287;DHT22;8251;53.568;10.018;2022-09-01T00:16:50;19.60;64.70
16287;DHT22;8251;53.568;10.018;2022-09-01T00:19:19;19.60;64.70
16287;DHT22;8251;53.568;10.018;2022-09-01T00:21:53;19.60;64.70
16287;DHT22;8251;53.568;10.018;2022-09-01T00:24:26;19.60;64.70
16287;DHT22;8251;53.568;10.018;2022-09-01T00:26:56;19.60;64.90
16287;DHT22;8251;53.568;10.018;2022-09-01T00:29:25;19.50;65.00
16287;DHT22;8251;53.568;10.018;2022-09-01T00:31:53;19.50;65.10
16287;DHT22;8251;53.568;10.018;2022-09-01T00:34:21;19.50;65.30
16287;DHT22;8251;53.568;10.018;2022-09-01T00:36:56;19.40;65.30
16287;DHT22;8251;53.568;10.018;2022-09-01T00:39:29;19.40;65.50
16287;DHT22;8251;53.568;10.018;2022-09-01T00:41:59;19.40;65.50
16287;DHT22;8251;53.568;10.018;2022-09-01T00:44:28;19.40;65.50
16287;DHT22;8251;53.568;10.018;2022-09-01T00:46:58;19.40;65.70
16287;DHT22;8251;53.568;10.018;2022-09-01T00:49:29;19.30;65.80
16287;DHT22;8251;53.568;10.018;2022-09-01T00:52:04;19.30;65.90
16287;DHT22;8251;53.568;10.018;2022-09-01T00:54:39;19.30;66.00
16287;DHT22;8251;53.568;10.018;2022-09-01T00:57:09;19.30;66.10
16287;DHT22;8251;53.568;10.018;2022-09-01T00:59:51;19.30;66.20
16287;DHT22;8251;53.568;10.018;2022-09-01T01:02:22;19.30;66.30
16287;DHT22;8251;53.568;10.018;2022-09-01T01:04:51;19.20;66.40
16287;DHT22;8251;53.568;10.018;2022-09-01T01:07:21;19.20;66.50
16287;DHT22;8251;53.568;10.018;2022-09-01T01:09:57;19.20;66.60
16287;DHT22;8251;53.568;10.018;2022-09-01T01:12:24;19.20;66.60
16287;DHT22;8251;53.568;10.018;2022-09-01T01:15:02;19.10;66.70
16287;DHT22;8251;53.568;10.018;2022-09-01T01:17:36;19.10;66.70
16287;DHT22;8251;53.568;10.018;2022-09-01T01:20:05;19.10;66.90
16287;DHT22;8251;53.568;10.018;2022-09-01T01:23:02;19.10;67.10
16287;DHT22;8251;53.568;10.018;2022-09-01T01:25:45;19.00;67.10
16287;DHT22;8251;53.568;10.018;2022-09-01T01:28:15;19.00;67.20
16287;DHT22;8251;53.568;10.018;2022-09-01T01:31:01;19.00;67.30
16287;DHT22;8251;53.568;10.018;2022-09-01T01:33:33;19.00;67.40
16287;DHT22;8251;53.568;10.018;2022-09-01T01:36:09;18.90;67.40
16287;DHT22;8251;53.568;10.018;2022-09-01T01:38:39;18.90;67.50
16287;DHT22;8251;53.568;10.018;2022-09-01T01:41:23;18.80;67.70
16287;DHT22;8251;53.568;10.018;2022-09-01T01:43:51;18.80;67.80
16287;DHT22;8251;53.568;10.018;2022-09-01T01:46:20;18.80;68.10
16287;DHT22;8251;53.568;10.018;2022-09-01T01:48:49;18.70;68.20
16287;DHT22;8251;53.568;10.018;2022-09-01T01:51:24;18.70;68.30
16287;DHT22;8251;53.568;10.018;2022-09-01T01:53:54;18.70;68.40
16287;DHT22;8251;53.568;10.018;2022-09-01T01:56:24;18.70;68.50
16287;DHT22;8251;53.568;10.018;2022-09-01T01:58:57;18.70;68.50
16287;DHT22;8251;53.568;10.018;2022-09-01T02:01:29;18.70;68.50
16287;DHT22;8251;53.568;10.018;2022-09-01T02:04:01;18.70;68.70
16287;DHT22;8251;53.568;10.018;2022-09-01T02:06:34;18.60;68.70
16287;DHT22;8251;53.568;10.018;2022-09-01T02:09:11;18.60;69.70
16287;DHT22;8251;53.568;10.018;2022-09-01T02:11:46;18.60;68.90
16287;DHT22;8251;53.568;10.018;2022-09-01T02:14:17;18.60;69.00
16287;DHT22;8251;53.568;10.018;2022-09-01T02:16:48;18.60;69.10
16287;DHT22;8251;53.568;10.018;2022-09-01T02:19:16;18.60;69.10
16287;DHT22;8251;53.568;10.018;2022-09-01T02:21:46;18.60;69.10
16287;DHT22;8251;53.568;10.018;2022-09-01T02:24:22;18.60;69.10
16287;DHT22;8251;53.568;10.018;2022-09-01T02:26:56;18.70;69.20
16287;DHT22;8251;53.568;10.018;2022-09-01T02:29:28;18.60;69.10
16287;DHT22;8251;53.568;10.018;2022-09-01T02:31:55;18.60;69.30
16287;DHT22;8251;53.568;10.018;2022-09-01T02:34:25;18.70;69.40
16287;DHT22;8251;53.568;10.018;2022-09-01T02:36:58;18.60;69.50
16287;DHT22;8251;53.568;10.018;2022-09-01T02:39:31;18.60;69.50
16287;DHT22;8251;53.568;10.018;2022-09-01T02:42:03;18.60;69.50
16287;DHT22;8251;53.568;10.018;2022-09-01T02:44:34;18.50;69.70
16287;DHT22;8251;53.568;10.018;2022-09-01T02:47:03;18.50;69.90
16287;DHT22;8251;53.568;10.018;2022-09-01T02:49:36;18.50;69.90
16287;DHT22;8251;53.568;10.018;2022-09-01T02:52:14;18.50;70.10
16287;DHT22;8251;53.568;10.018;2022-09-01T02:54:43;18.40;70.10
16287;DHT22;8251;53.568;10.018;2022-09-01T02:57:15;18.40;70.20
16287;DHT22;8251;53.568;10.018;2022-09-01T02:59:43;18.40;70.60
16287;DHT22;8251;53.568;10.018;2022-09-01T03:02:12;18.40;70.80
16287;DHT22;8251;53.568;10.018;2022-09-01T03:04:40;18.40;70.70
16287;DHT22;8251;53.568;10.018;2022-09-01T03:07:09;18.50;71.00
16287;DHT22;8251;53.568;10.018;2022-09-01T03:09:39;18.40;70.90
16287;DHT22;8251;53.568;10.018;2022-09-01T03:12:10;18.40;71.00
16287;DHT22;8251;53.568;10.018;2022-09-01T03:14:43;18.40;71.00
16287;DHT22;8251;53.568;10.018;2022-09-01T03:17:11;18.50;70.90
16287;DHT22;8251;53.568;10.018;2022-09-01T03:19:43;18.40;71.10
16287;DHT22;8251;53.568;10.018;2022-09-01T03:22:12;18.40;71.20
16287;DHT22;8251;53.568;10.018;2022-09-01T03:24:43;18.30;71.20
16287;DHT22;8251;53.568;10.018;2022-09-01T03:27:11;18.30;71.20
16287;DHT22;8251;53.568;10.018;2022-09-01T03:29:44;18.30;71.30
16287;DHT22;8251;53.568;10.018;2022-09-01T03:32:14;18.30;71.40
16287;DHT22;8251;53.568;10.018;2022-09-01T03:34:42;18.30;71.40
16287;DHT22;8251;53.568;10.018;2022-09-01T03:37:11;18.30;71.70
16287;DHT22;8251;53.568;10.018;2022-09-01T03:39:40;18.20;71.70
16287;DHT22;8251;53.568;10.018;2022-09-01T03:42:12;18.20;71.70
16287;DHT22;8251;53.568;10.018;2022-09-01T03:44:54;18.20;71.90
16287;DHT22;8251;53.568;10.018;2022-09-01T03:47:21;18.20;72.00
16287;DHT22;8251;53.568;10.018;2022-09-01T03:49:49;18.20;72.00
16287;DHT22;8251;53.568;10.018;2022-09-01T03:52:19;18.10;71.90
16287;DHT22;8251;53.568;10.018;2022-09-01T03:54:59;18.10;72.00
16287;DHT22;8251;53.568;10.018;2022-09-01T03:57:27;18.10;72.10
16287;DHT22;8251;53.568;10.018;2022-09-01T04:00:03;18.10;72.20
16287;DHT22;8251;53.568;10.018;2022-09-01T04:02:49;18.10;72.20
16287;DHT22;8251;53.568;10.018;2022-09-01T04:05:23;18.00;72.40
16287;DHT22;8251;53.568;10.018;2022-09-01T04:07:57;18.10;72.50
16287;DHT22;8251;53.568;10.018;2022-09-01T04:10:27;18.00;72.50
16287;DHT22;8251;53.568;10.018;2022-09-01T04:12:54;18.00;72.80
16287;DHT22;8251;53.568;10.018;2022-09-01T04:15:39;18.00;72.90
16287;DHT22;8251;53.568;10.018;2022-09-01T04:18:07;18.00;72.90
16287;DHT22;8251;53.568;10.018;2022-09-01T04:20:47;17.90;73.00
16287;DHT22;8251;53.568;10.018;2022-09-01T04:23:17;18.00;73.20
16287;DHT22;8251;53.568;10.018;2022-09-01T04:25:53;18.00;74.00
16287;DHT22;8251;53.568;10.018;2022-09-01T04:28:30;18.00;73.30
16287;DHT22;8251;53.568;10.018;2022-09-01T04:31:07;18.00;73.30
16287;DHT22;8251;53.568;10.018;2022-09-01T04:33:39;18.00;73.10
16287;DHT22;8251;53.568;10.018;2022-09-01T04:36:16;18.00;73.20
16287;DHT22;8251;53.568;10.018;2022-09-01T04:38:47;17.90;73.20
16287;DHT22;8251;53.568;10.018;2022-09-01T04:41:27;18.00;73.40
16287;DHT22;8251;53.568;10.018;2022-09-01T04:44:05;18.00;73.40
16287;DHT22;8251;53.568;10.018;2022-09-01T04:46:46;18.00;73.50
16287;DHT22;8251;53.568;10.018;2022-09-01T04:49:19;18.00;74.20
16287;DHT22;8251;53.568;10.018;2022-09-01T04:51:54;18.00;73.40
16287;DHT22;8251;53.568;10.018;2022-09-01T04:54:21;18.00;73.60
16287;DHT22;8251;53.568;10.018;2022-09-01T04:56:51;18.00;73.40
16287;DHT22;8251;53.568;10.018;2022-09-01T04:59:21;18.00;73.50
16287;DHT22;8251;53.568;10.018;2022-09-01T05:01:54;18.10;73.60
16287;DHT22;8251;53.568;10.018;2022-09-01T05:04:27;18.00;73.60
16287;DHT22;8251;53.568;10.018;2022-09-01T05:06:59;18.00;73.60
16287;DHT22;8251;53.568;10.018;2022-09-01T05:09:34;18.00;73.70
16287;DHT22;8251;53.568;10.018;2022-09-01T05:12:06;18.00;73.80
16287;DHT22;8251;53.568;10.018;2022-09-01T05:14:53;18.00;73.70
16287;DHT22;8251;53.568;10.018;2022-09-01T05:17:26;18.10;73.80
16287;DHT22;8251;53.568;10.018;2022-09-01T05:19:55;18.10;73.80
16287;DHT22;8251;53.568;10.018;2022-09-01T05:22:26;18.10;73.70
16287;DHT22;8251;53.568;10.018;2022-09-01T05:24:57;18.10;73.60
16287;DHT22;8251;53.568;10.018;2022-09-01T05:27:29;18.10;73.60
16287;DHT22;8251;53.568;10.018;2022-09-01T05:30:00;18.10;73.60
16287;DHT22;8251;53.568;10.018;2022-09-01T05:32:36;18.10;73.60
16287;DHT22;8251;53.568;10.018;2022-09-01T05:35:05;18.20;73.80
16287;DHT22;8251;53.568;10.018;2022-09-01T05:37:37;18.10;73.70
16287;DHT22;8251;53.568;10.018;2022-09-01T05:40:08;18.10;73.70
16287;DHT22;8251;53.568;10.018;2022-09-01T05:42:44;18.10;73.70
16287;DHT22;8251;53.568;10.018;2022-09-01T05:45:14;18.20;73.80
16287;DHT22;8251;53.568;10.018;2022-09-01T05:47:48;18.20;73.80
16287;DHT22;8251;53.568;10.018;2022-09-01T05:50:19;18.20;73.80
16287;DHT22;8251;53.568;10.018;2022-09-01T05:52:50;18.20;73.80
16287;DHT22;8251;53.568;10.018;2022-09-01T05:55:18;18.30;73.90
16287;DHT22;8251;53.568;10.018;2022-09-01T05:57:54;18.30;73.80
16287;DHT22;8251;53.568;10.018;2022-09-01T06:00:25;18.40;73.90
16287;DHT22;8251;53.568;10.018;2022-09-01T06:03:02;18.40;73.70
16287;DHT22;8251;53.568;10.018;2022-09-01T06:05:36;18.50;73.60
16287;DHT22;8251;53.568;10.018;2022-09-01T06:08:05;18.50;73.50
16287;DHT22;8251;53.568;10.018;2022-09-01T06:10:36;18.50;73.60
16287;DHT22;8251;53.568;10.018;2022-09-01T06:13:19;18.60;73.50
16287;DHT22;8251;53.568;10.018;2022-09-01T06:15:47;18.70;73.30
16287;DHT22;8251;53.568;10.018;2022-09-01T06:18:17;18.80;73.20
16287;DHT22;8251;53.568;10.018;2022-09-01T06:20:46;18.90;73.10
16287;DHT22;8251;53.568;10.018;2022-09-01T06:23:16;19.10;72.80
16287;DHT22;8251;53.568;10.018;2022-09-01T06:25:45;19.30;72.30
16287;DHT22;8251;53.568;10.018;2022-09-01T06:28:17;19.60;71.50
16287;DHT22;8251;53.568;10.018;2022-09-01T06:30:50;19.80;70.30
16287;DHT22;8251;53.568;10.018;2022-09-01T06:33:19;20.10;69.40
16287;DHT22;8251;53.568;10.018;2022-09-01T06:35:48;20.40;68.40
16287;DHT22;8251;53.568;10.018;2022-09-01T06:38:18;20.70;67.40
16287;DHT22;8251;53.568;10.018;2022-09-01T06:40:57;21.30;65.90
16287;DHT22;8251;53.568;10.018;2022-09-01T06:43:27;22.30;63.20
16287;DHT22;8251;53.568;10.018;2022-09-01T06:45:59;23.30;60.40
16287;DHT22;8251;53.568;10.018;2022-09-01T06:48:36;24.10;57.80
16287;DHT22;8251;53.568;10.018;2022-09-01T06:51:14;24.60;55.60
16287;DHT22;8251;53.568;10.018;2022-09-01T06:53:43;24.60;55.50
16287;DHT22;8251;53.568;10.018;2022-09-01T06:56:11;24.70;55.20
16287;DHT22;8251;53.568;10.018;2022-09-01T06:58:44;25.10;54.60
16287;DHT22;8251;53.568;10.018;2022-09-01T07:01:16;25.60;53.60
16287;DHT22;8251;53.568;10.018;2022-09-01T07:03:49;25.70;52.40
16287;DHT22;8251;53.568;10.018;2022-09-01T07:06:19;25.60;52.20
16287;DHT22;8251;53.568;10.018;2022-09-01T07:08:52;25.30;53.10
16287;DHT22;8251;53.568;10.018;2022-09-01T07:11:24;24.80;53.40
16287;DHT22;8251;53.568;10.018;2022-09-01T07:13:59;24.70;54.60
16287;DHT22;8251;53.568;10.018;2022-09-01T07:16:33;24.50;54.30
16287;DHT22;8251;53.568;10.018;2022-09-01T07:19:10;24.40;54.10
16287;DHT22;8251;53.568;10.018;2022-09-01T07:21:40;24.40;53.90
16287;DHT22;8251;53.568;10.018;2022-09-01T07:24:10;24.50;54.00
16287;DHT22;8251;53.568;10.018;2022-09-01T07:26:46;24.70;53.70
16287;DHT22;8251;53.568;10.018;2022-09-01T07:29:17;25.50;53.30
16287;DHT22;8251;53.568;10.018;2022-09-01T07:31:49;26.50;51.30
16287;DHT22;8251;53.568;10.018;2022-09-01T07:34:26;27.60;49.00
16287;DHT22;8251;53.568;10.018;2022-09-01T07:36:59;28.70;47.20
16287;DHT22;8251;53.568;10.018;2022-09-01T07:39:28;29.60;45.40
16287;DHT22;8251;53.568;10.018;2022-09-01T07:41:58;30.40;43.80
16287;DHT22;8251;53.568;10.018;2022-09-01T07:44:33;31.10;42.10
16287;DHT22;8251;53.568;10.018;2022-09-01T07:47:04;31.80;40.90
16287;DHT22;8251;53.568;10.018;2022-09-01T07:49:39;32.30;39.50
16287;DHT22;8251;53.568;10.018;2022-09-01T07:52:09;32.60;38.60
16287;DHT22;8251;53.568;10.018;2022-09-01T07:54:36;32.50;38.10
16287;DHT22;8251;53.568;10.018;2022-09-01T07:57:06;32.40;38.20
16287;DHT22;8251;53.568;10.018;2022-09-01T07:59:33;32.30;38.70
16287;DHT22;8251;53.568;10.018;2022-09-01T08:02:00;32.30;38.60
16287;DHT22;8251;53.568;10.018;2022-09-01T08:04:30;32.40;37.70
16287;DHT22;8251;53.568;10.018;2022-09-01T08:07:00;32.40;37.90
16287;DHT22;8251;53.568;10.018;2022-09-01T08:09:27;32.10;37.30
16287;DHT22;8251;53.568;10.018;2022-09-01T08:11:56;31.80;38.00
16287;DHT22;8251;53.568;10.018;2022-09-01T08:14:25;31.60;38.20
16287;DHT22;8251;53.568;10.018;2022-09-01T08:16:54;31.40;37.90
16287;DHT22;8251;53.568;10.018;2022-09-01T08:19:23;31.30;37.60
16287;DHT22;8251;53.568;10.018;2022-09-01T08:21:54;31.20;37.80
16287;DHT22;8251;53.568;10.018;2022-09-01T08:24:23;30.80;36.50
16287;DHT22;8251;53.568;10.018;2022-09-01T08:26:51;30.70;36.40
16287;DHT22;8251;53.568;10.018;2022-09-01T08:29:20;30.80;36.90
16287;DHT22;8251;53.568;10.018;2022-09-01T08:31:49;30.90;36.10
16287;DHT22;8251;53.568;10.018;2022-09-01T08:34:21;31.20;36.40
16287;DHT22;8251;53.568;10.018;2022-09-01T08:36:48;31.60;36.30
16287;DHT22;8251;53.568;10.018;2022-09-01T08:39:16;31.90;35.60
16287;DHT22;8251;53.568;10.018;2022-09-01T08:41:52;32.40;34.90
16287;DHT22;8251;53.568;10.018;2022-09-01T08:44:28;32.80;34.10
16287;DHT22;8251;53.568;10.018;2022-09-01T08:47:03;33.00;33.60
16287;DHT22;8251;53.568;10.018;2022-09-01T08:49:35;33.20;33.70
16287;DHT22;8251;53.568;10.018;2022-09-01T08:52:16;33.30;33.70
16287;DHT22;8251;53.568;10.018;2022-09-01T08:54:53;33.40;33.20
16287;DHT22;8251;53.568;10.018;2022-09-01T08:57:31;33.80;32.60
16287;DHT22;8251;53.568;10.018;2022-09-01T09:00:03;34.40;32.00
16287;DHT22;8251;53.568;10.018;2022-09-01T09:02:39;34.80;31.70
16287;DHT22;8251;53.568;10.018;2022-09-01T09:05:42;35.00;30.80
16287;DHT22;8251;53.568;10.018;2022-09-01T09:08:39;35.30;30.10
16287;DHT22;8251;53.568;10.018;2022-09-01T09:11:23;35.50;29.00
16287;DHT22;8251;53.568;10.018;2022-09-01T09:14:12;35.30;29.10
16287;DHT22;8251;53.568;10.018;2022-09-01T09:16:44;35.20;29.10
16287;DHT22;8251;53.568;10.018;2022-09-01T09:19:23;34.80;29.00
16287;DHT22;8251;53.568;10.018;2022-09-01T09:22:03;34.10;29.30
16287;DHT22;8251;53.568;10.018;2022-09-01T09:24:38;33.40;30.30
16287;DHT22;8251;53.568;10.018;2022-09-01T09:27:24;32.70;30.10
16287;DHT22;8251;53.568;10.018;2022-09-01T09:30:00;31.90;30.40
16287;DHT22;8251;53.568;10.018;2022-09-01T09:32:48;31.10;31.10
16287;DHT22;8251;53.568;10.018;2022-09-01T09:35:25;30.40;32.00
16287;DHT22;8251;53.568;10.018;2022-09-01T09:38:21;30.00;32.90
16287;DHT22;8251;53.568;10.018;2022-09-01T09:41:01;29.80;33.70
16287;DHT22;8251;53.568;10.018;2022-09-01T09:43:34;29.90;34.10
16287;DHT22;8251;53.568;10.018;2022-09-01T09:46:25;30.30;35.10
16287;DHT22;8251;53.568;10.018;2022-09-01T09:49:18;30.70;34.70
16287;DHT22;8251;53.568;10.018;2022-09-01T09:51:52;30.90;34.40
16287;DHT22;8251;53.568;10.018;2022-09-01T09:54:24;31.30;33.90
16287;DHT22;8251;53.568;10.018;2022-09-01T09:57:09;31.60;33.10
16287;DHT22;8251;53.568;10.018;2022-09-01T09:59:40;31.80;32.80
16287;DHT22;8251;53.568;10.018;2022-09-01T10:02:26;31.80;32.50
16287;DHT22;8251;53.568;10.018;2022-09-01T10:04:56;32.00;32.80
16287;DHT22;8251;53.568;10.018;2022-09-01T10:07:31;32.10;32.70
16287;DHT22;8251;53.568;10.018;2022-09-01T10:10:29;32.40;32.70
16287;DHT22;8251;53.568;10.018;2022-09-01T10:13:01;32.70;31.90
16287;DHT22;8251;53.568;10.018;2022-09-01T10:15:39;33.00;31.90
16287;DHT22;8251;53.568;10.018;2022-09-01T10:18:12;33.40;31.60
16287;DHT22;8251;53.568;10.018;2022-09-01T10:20:47;33.50;31.10
16287;DHT22;8251;53.568;10.018;2022-09-01T10:23:16;33.80;30.40
16287;DHT22;8251;53.568;10.018;2022-09-01T10:25:49;34.00;29.80
16287;DHT22;8251;53.568;10.018;2022-09-01T10:28:20;33.90;29.30
16287;DHT22;8251;53.568;10.018;2022-09-01T10:30:53;33.40;28.40
16287;DHT22;8251;53.568;10.018;2022-09-01T10:33:22;33.20;28.50
16287;DHT22;8251;53.568;10.018;2022-09-01T10:35:52;33.30;28.80
16287;DHT22;8251;53.568;10.018;2022-09-01T10:38:23;33.20;29.20
16287;DHT22;8251;53.568;10.018;2022-09-01T10:40:52;33.10;29.80
16287;DHT22;8251;53.568;10.018;2022-09-01T10:43:37;33.30;29.90
16287;DHT22;8251;53.568;10.018;2022-09-01T10:52:51;33.30;28.80
16287;DHT22;8251;53.568;10.018;2022-09-01T10:55:21;32.70;29.70
16287;DHT22;8251;53.568;10.018;2022-09-01T10:57:59;32.20;30.00
16287;DHT22;8251;53.568;10.018;2022-09-01T11:00:49;31.70;30.40
16287;DHT22;8251;53.568;10.018;2022-09-01T11:03:37;31.10;31.00
16287;DHT22;8251;53.568;10.018;2022-09-01T11:06:08;30.70;31.60
16287;DHT22;8251;53.568;10.018;2022-09-01T11:08:45;30.20;32.20
16287;DHT22;8251;53.568;10.018;2022-09-01T11:11:24;29.90;32.40
16287;DHT22;8251;53.568;10.018;2022-09-01T11:13:52;29.60;33.20
16287;DHT22;8251;53.568;10.018;2022-09-01T11:16:33;29.50;33.80
16287;DHT22;8251;53.568;10.018;2022-09-01T11:22:25;29.20;34.80
16287;DHT22;8251;53.568;10.018;2022-09-01T11:28:37;28.90;36.00
16287;DHT22;8251;53.568;10.018;2022-09-01T11:31:31;29.00;36.60
16287;DHT22;8251;53.568;10.018;2022-09-01T11:34:14;29.10;37.00
16287;DHT22;8251;53.568;10.018;2022-09-01T11:37:01;29.30;37.20
16287;DHT22;8251;53.568;10.018;2022-09-01T11:39:35;29.60;36.90
16287;DHT22;8251;53.568;10.018;2022-09-01T11:42:09;29.90;36.00
16287;DHT22;8251;53.568;10.018;2022-09-01T11:44:44;30.20;34.80
16287;DHT22;8251;53.568;10.018;2022-09-01T11:47:19;30.40;34.20
16287;DHT22;8251;53.568;10.018;2022-09-01T11:49:56;30.60;33.70
16287;DHT22;8251;53.568;10.018;2022-09-01T11:52:26;30.90;33.70
16287;DHT22;8251;53.568;10.018;2022-09-01T11:55:01;31.10;33.50
16287;DHT22;8251;53.568;10.018;2022-09-01T11:57:31;30.90;33.10
16287;DHT22;8251;53.568;10.018;2022-09-01T12:00:00;30.60;33.70
16287;DHT22;8251;53.568;10.018;2022-09-01T12:02:31;30.20;33.60
16287;DHT22;8251;53.568;10.018;2022-09-01T12:05:02;29.80;34.20
16287;DHT22;8251;53.568;10.018;2022-09-01T12:07:42;29.70;35.50
16287;DHT22;8251;53.568;10.018;2022-09-01T12:10:21;29.70;36.10
16287;DHT22;8251;53.568;10.018;2022-09-01T12:13:00;30.00;35.90
16287;DHT22;8251;53.568;10.018;2022-09-01T12:15:33;30.20;35.40
16287;DHT22;8251;53.568;10.018;2022-09-01T12:18:13;30.50;35.20
16287;DHT22;8251;53.568;10.018;2022-09-01T12:20:44;30.70;34.40
16287;DHT22;8251;53.568;10.018;2022-09-01T12:23:22;30.70;33.30
16287;DHT22;8251;53.568;10.018;2022-09-01T12:25:52;30.60;33.00
16287;DHT22;8251;53.568;10.018;2022-09-01T12:28:21;30.60;33.30
16287;DHT22;8251;53.568;10.018;2022-09-01T12:30:49;30.60;32.90
16287;DHT22;8251;53.568;10.018;2022-09-01T12:33:18;30.50;33.50
16287;DHT22;8251;53.568;10.018;2022-09-01T12:35:47;30.50;33.80
16287;DHT22;8251;53.568;10.018;2022-09-01T12:38:25;30.60;33.70
16287;DHT22;8251;53.568;10.018;2022-09-01T12:40:56;30.70;34.00
16287;DHT22;8251;53.568;10.018;2022-09-01T12:43:33;30.70;32.80
16287;DHT22;8251;53.568;10.018;2022-09-01T12:46:00;30.70;32.70
16287;DHT22;8251;53.568;10.018;2022-09-01T12:48:32;30.80;33.10
16287;DHT22;8251;53.568;10.018;2022-09-01T12:51:01;30.80;32.70
16287;DHT22;8251;53.568;10.018;2022-09-01T12:53:32;30.80;32.40
16287;DHT22;8251;53.568;10.018;2022-09-01T12:59:06;30.90;33.20
16287;DHT22;8251;53.568;10.018;2022-09-01T13:01:42;31.00;32.00
16287;DHT22;8251;53.568;10.018;2022-09-01T13:04:40;30.90;32.40
16287;DHT22;8251;53.568;10.018;2022-09-01T13:07:07;30.90;32.00
16287;DHT22;8251;53.568;10.018;2022-09-01T13:09:35;31.00;32.60
16287;DHT22;8251;53.568;10.018;2022-09-01T13:12:17;31.20;32.10
16287;DHT22;8251;53.568;10.018;2022-09-01T13:14:46;31.20;31.20
16287;DHT22;8251;53.568;10.018;2022-09-01T13:17:14;31.10;31.80
16287;DHT22;8251;53.568;10.018;2022-09-01T13:19:42;30.80;31.60
16287;DHT22;8251;53.568;10.018;2022-09-01T13:22:14;30.70;32.20
16287;DHT22;8251;53.568;10.018;2022-09-01T13:24:42;30.50;32.30
16287;DHT22;8251;53.568;10.018;2022-09-01T13:27:23;30.40;32.90
16287;DHT22;8251;53.568;10.018;2022-09-01T13:29:53;30.20;34.10
16287;DHT22;8251;53.568;10.018;2022-09-01T13:32:22;30.00;34.70
16287;DHT22;8251;53.568;10.018;2022-09-01T13:34:51;29.70;35.30
16287;DHT22;8251;53.568;10.018;2022-09-01T13:37:20;29.60;35.80
16287;DHT22;8251;53.568;10.018;2022-09-01T13:39:47;29.40;36.10
16287;DHT22;8251;53.568;10.018;2022-09-01T13:42:19;29.10;36.70
16287;DHT22;8251;53.568;10.018;2022-09-01T13:44:49;28.90;36.70
16287;DHT22;8251;53.568;10.018;2022-09-01T13:47:16;28.80;36.80
16287;DHT22;8251;53.568;10.018;2022-09-01T13:49:43;28.60;36.90
16287;DHT22;8251;53.568;10.018;2022-09-01T13:52:11;28.30;37.00
16287;DHT22;8251;53.568;10.018;2022-09-01T13:54:39;28.10;37.40
16287;DHT22;8251;53.568;10.018;2022-09-01T13:57:11;28.00;37.80
16287;DHT22;8251;53.568;10.018;2022-09-01T13:59:43;27.90;37.60
16287;DHT22;8251;53.568;10.018;2022-09-01T14:02:10;27.70;37.70
16287;DHT22;8251;53.568;10.018;2022-09-01T14:04:38;27.60;38.30
16287;DHT22;8251;53.568;10.018;2022-09-01T14:07:06;27.40;38.70
16287;DHT22;8251;53.568;10.018;2022-09-01T14:09:35;27.30;39.00
16287;DHT22;8251;53.568;10.018;2022-09-01T14:12:03;27.10;38.80
16287;DHT22;8251;53.568;10.018;2022-09-01T14:14:34;27.00;39.00
16287;DHT22;8251;53.568;10.018;2022-09-01T14:17:05;26.90;39.10
16287;DHT22;8251;53.568;10.018;2022-09-01T14:19:32;26.80;39.20
16287;DHT22;8251;53.568;10.018;2022-09-01T14:22:03;26.70;39.30
16287;DHT22;8251;53.568;10.018;2022-09-01T14:24:32;26.70;39.50
16287;DHT22;8251;53.568;10.018;2022-09-01T14:27:01;26.50;39.50
16287;DHT22;8251;53.568;10.018;2022-09-01T14:29:29;26.50;39.70
16287;DHT22;8251;53.568;10.018;2022-09-01T14:31:58;26.40;39.80
16287;DHT22;8251;53.568;10.018;2022-09-01T14:34:29;26.30;39.90
16287;DHT22;8251;53.568;10.018;2022-09-01T14:36:59;26.20;40.00
16287;DHT22;8251;53.568;10.018;2022-09-01T14:39:27;26.10;39.90
16287;DHT22;8251;53.568;10.018;2022-09-01T14:42:03;26.10;40.20
16287;DHT22;8251;53.568;10.018;2022-09-01T14:44:37;26.00;40.20
16287;DHT22;8251;53.568;10.018;2022-09-01T14:47:05;25.90;40.40
16287;DHT22;8251;53.568;10.018;2022-09-01T14:49:34;25.90;40.70
16287;DHT22;8251;53.568;10.018;2022-09-01T14:52:05;25.80;40.80
16287;DHT22;8251;53.568;10.018;2022-09-01T14:54:33;25.80;41.00
16287;DHT22;8251;53.568;10.018;2022-09-01T14:57:03;25.90;41.10
16287;DHT22;8251;53.568;10.018;2022-09-01T14:59:34;25.90;40.80
16287;DHT22;8251;53.568;10.018;2022-09-01T15:02:03;26.00;40.80
16287;DHT22;8251;53.568;10.018;2022-09-01T15:04:33;26.10;40.80
16287;DHT22;8251;53.568;10.018;2022-09-01T15:07:02;26.10;40.80
16287;DHT22;8251;53.568;10.018;2022-09-01T15:09:31;26.20;40.80
16287;DHT22;8251;53.568;10.018;2022-09-01T15:11:59;26.20;40.80
16287;DHT22;8251;53.568;10.018;2022-09-01T15:14:26;26.10;40.90
16287;DHT22;8251;53.568;10.018;2022-09-01T15:16:54;26.00;41.30
16287;DHT22;8251;53.568;10.018;2022-09-01T15:19:27;25.90;41.50
16287;DHT22;8251;53.568;10.018;2022-09-01T15:21:59;25.80;41.80
16287;DHT22;8251;53.568;10.018;2022-09-01T15:24:27;25.70;42.40
16287;DHT22;8251;53.568;10.018;2022-09-01T15:26:55;25.60;42.80
16287;DHT22;8251;53.568;10.018;2022-09-01T15:29:23;25.50;43.10
16287;DHT22;8251;53.568;10.018;2022-09-01T15:31:52;25.50;43.40
16287;DHT22;8251;53.568;10.018;2022-09-01T15:34:24;25.40;43.40
16287;DHT22;8251;53.568;10.018;2022-09-01T15:36:51;25.40;43.60
16287;DHT22;8251;53.568;10.018;2022-09-01T15:39:22;25.30;43.60
16287;DHT22;8251;53.568;10.018;2022-09-01T15:41:49;25.20;43.60
16287;DHT22;8251;53.568;10.018;2022-09-01T15:44:17;25.20;43.60
16287;DHT22;8251;53.568;10.018;2022-09-01T15:46:46;25.20;43.90
16287;DHT22;8251;53.568;10.018;2022-09-01T15:49:15;25.20;43.80
16287;DHT22;8251;53.568;10.018;2022-09-01T15:51:45;25.30;43.90
16287;DHT22;8251;53.568;10.018;2022-09-01T15:54:15;25.50;43.90
16287;DHT22;8251;53.568;10.018;2022-09-01T15:56:44;25.60;43.60
16287;DHT22;8251;53.568;10.018;2022-09-01T15:59:12;25.60;43.70
16287;DHT22;8251;53.568;10.018;2022-09-01T16:01:43;25.70;43.60
16287;DHT22;8251;53.568;10.018;2022-09-01T16:04:14;25.70;43.20
16287;DHT22;8251;53.568;10.018;2022-09-01T16:06:41;25.70;43.30
16287;DHT22;8251;53.568;10.018;2022-09-01T16:09:09;25.60;43.40
16287;DHT22;8251;53.568;10.018;2022-09-01T16:11:38;25.60;43.60
16287;DHT22;8251;53.568;10.018;2022-09-01T16:14:06;25.50;43.40
16287;DHT22;8251;53.568;10.018;2022-09-01T16:16:42;25.40;43.60
16287;DHT22;8251;53.568;10.018;2022-09-01T16:19:20;25.40;43.80
16287;DHT22;8251;53.568;10.018;2022-09-01T16:21:56;25.20;44.30